TAF KXNA
KXNA 280520Z 2806/2906 36007KT P6SM FEW250 FM290000 18003KT P6SM SKC=
METAR KXNA
WC KXNA
WS KXNA
WV KXNA